sensor_id;sensor_type;location;lat;lon;timestamp;P1;durP1;ratioP1;P2;durP2;ratioP2
58518;SDS011;44310;48.106;12.008;2022-08-06T00:00:16;8.98;;;1.88;;
58518;SDS011;44310;48.106;12.008;2022-08-06T00:02:53;1.83;;;1.55;;
58518;SDS011;44310;48.106;12.008;2022-08-06T00:05:20;4.13;;;2.03;;
58518;SDS011;44310;48.106;12.008;2022-08-06T00:08:00;7.65;;;1.67;;
58518;SDS011;44310;48.106;12.008;2022-08-06T00:10:28;1.65;;;1.55;;
58518;SDS011;44310;48.106;12.008;2022-08-06T00:12:57;2.00;;;1.73;;
58518;SDS011;44310;48.106;12.008;2022-08-06T00:15:26;1.75;;;1.50;;
58518;SDS011;44310;48.106;12.008;2022-08-06T00:18:14;3.43;;;1.67;;
58518;SDS011;44310;48.106;12.008;2022-08-06T00:20:43;6.55;;;1.77;;
58518;SDS011;44310;48.106;12.008;2022-08-06T00:23:16;4.47;;;1.67;;
58518;SDS011;44310;48.106;12.008;2022-08-06T00:25:49;6.30;;;1.95;;
58518;SDS011;44310;48.106;12.008;2022-08-06T00:28:19;2.93;;;1.87;;
58518;SDS011;44310;48.106;12.008;2022-08-06T00:31:01;2.40;;;1.45;;
58518;SDS011;44310;48.106;12.008;2022-08-06T00:33:37;2.65;;;1.20;;
58518;SDS011;44310;48.106;12.008;2022-08-06T00:36:24;1.70;;;1.48;;
58518;SDS011;44310;48.106;12.008;2022-08-06T00:38:55;5.00;;;1.60;;
58518;SDS011;44310;48.106;12.008;2022-08-06T00:41:26;3.85;;;1.65;;
58518;SDS011;44310;48.106;12.008;2022-08-06T00:44:11;6.70;;;2.00;;
58518;SDS011;44310;48.106;12.008;2022-08-06T00:46:40;1.52;;;1.42;;
58518;SDS011;44310;48.106;12.008;2022-08-06T00:49:08;1.55;;;1.45;;
58518;SDS011;44310;48.106;12.008;2022-08-06T00:51:38;2.10;;;1.50;;
58518;SDS011;44310;48.106;12.008;2022-08-06T00:54:17;1.53;;;1.43;;
58518;SDS011;44310;48.106;12.008;2022-08-06T00:57:02;2.92;;;1.70;;
58518;SDS011;44310;48.106;12.008;2022-08-06T00:59:37;2.10;;;1.35;;
58518;SDS011;44310;48.106;12.008;2022-08-06T01:02:06;1.90;;;1.48;;
58518;SDS011;44310;48.106;12.008;2022-08-06T01:04:36;3.90;;;2.00;;
58518;SDS011;44310;48.106;12.008;2022-08-06T01:07:04;1.42;;;1.35;;
58518;SDS011;44310;48.106;12.008;2022-08-06T01:09:36;1.40;;;1.30;;
58518;SDS011;44310;48.106;12.008;2022-08-06T01:12:23;1.40;;;1.30;;
58518;SDS011;44310;48.106;12.008;2022-08-06T01:15:01;2.37;;;1.27;;
58518;SDS011;44310;48.106;12.008;2022-08-06T01:20:22;2.60;;;1.35;;
58518;SDS011;44310;48.106;12.008;2022-08-06T01:26:28;1.83;;;1.50;;
58518;SDS011;44310;48.106;12.008;2022-08-06T01:32:03;2.03;;;1.63;;
58518;SDS011;44310;48.106;12.008;2022-08-06T01:34:38;2.63;;;1.52;;
58518;SDS011;44310;48.106;12.008;2022-08-06T01:40:10;2.63;;;1.53;;
58518;SDS011;44310;48.106;12.008;2022-08-06T01:42:41;1.90;;;1.40;;
58518;SDS011;44310;48.106;12.008;2022-08-06T01:45:20;3.53;;;1.73;;
58518;SDS011;44310;48.106;12.008;2022-08-06T01:48:12;8.02;;;2.05;;
58518;SDS011;44310;48.106;12.008;2022-08-06T01:50:47;2.47;;;1.40;;
58518;SDS011;44310;48.106;12.008;2022-08-06T01:53:18;1.15;;;1.10;;
58518;SDS011;44310;48.106;12.008;2022-08-06T01:56:12;2.08;;;1.60;;
58518;SDS011;44310;48.106;12.008;2022-08-06T01:58:56;3.97;;;1.65;;
58518;SDS011;44310;48.106;12.008;2022-08-06T02:01:30;1.60;;;1.50;;
58518;SDS011;44310;48.106;12.008;2022-08-06T02:04:19;1.90;;;1.48;;
58518;SDS011;44310;48.106;12.008;2022-08-06T02:06:50;2.47;;;1.57;;
58518;SDS011;44310;48.106;12.008;2022-08-06T02:09:20;6.25;;;1.42;;
58518;SDS011;44310;48.106;12.008;2022-08-06T02:14:52;3.55;;;1.63;;
58518;SDS011;44310;48.106;12.008;2022-08-06T02:17:27;1.17;;;1.10;;
58518;SDS011;44310;48.106;12.008;2022-08-06T02:20:17;2.63;;;1.58;;
58518;SDS011;44310;48.106;12.008;2022-08-06T02:23:05;3.35;;;1.48;;
58518;SDS011;44310;48.106;12.008;2022-08-06T02:25:36;1.90;;;1.25;;
58518;SDS011;44310;48.106;12.008;2022-08-06T02:28:07;4.38;;;1.98;;
58518;SDS011;44310;48.106;12.008;2022-08-06T02:30:37;4.50;;;1.55;;
58518;SDS011;44310;48.106;12.008;2022-08-06T02:33:08;1.40;;;1.30;;
58518;SDS011;44310;48.106;12.008;2022-08-06T02:38:28;2.20;;;1.38;;
58518;SDS011;44310;48.106;12.008;2022-08-06T02:41:19;1.55;;;1.45;;
58518;SDS011;44310;48.106;12.008;2022-08-06T02:43:51;3.67;;;1.27;;
58518;SDS011;44310;48.106;12.008;2022-08-06T02:46:25;2.05;;;1.48;;
58518;SDS011;44310;48.106;12.008;2022-08-06T02:49:00;2.50;;;1.33;;
58518;SDS011;44310;48.106;12.008;2022-08-06T02:51:39;1.92;;;1.17;;
58518;SDS011;44310;48.106;12.008;2022-08-06T02:54:37;1.37;;;1.30;;
58518;SDS011;44310;48.106;12.008;2022-08-06T02:57:14;1.40;;;1.00;;
58518;SDS011;44310;48.106;12.008;2022-08-06T02:59:49;1.00;;;1.00;;
58518;SDS011;44310;48.106;12.008;2022-08-06T03:02:22;3.30;;;1.27;;
58518;SDS011;44310;48.106;12.008;2022-08-06T03:04:53;1.30;;;1.20;;
58518;SDS011;44310;48.106;12.008;2022-08-06T03:07:26;1.23;;;1.20;;
58518;SDS011;44310;48.106;12.008;2022-08-06T03:09:57;1.83;;;1.40;;
58518;SDS011;44310;48.106;12.008;2022-08-06T03:12:26;1.85;;;1.25;;
58518;SDS011;44310;48.106;12.008;2022-08-06T03:15:05;3.03;;;1.52;;
58518;SDS011;44310;48.106;12.008;2022-08-06T03:17:39;1.40;;;1.30;;
58518;SDS011;44310;48.106;12.008;2022-08-06T03:20:13;5.50;;;1.48;;
58518;SDS011;44310;48.106;12.008;2022-08-06T03:22:52;4.07;;;1.33;;
58518;SDS011;44310;48.106;12.008;2022-08-06T03:25:23;1.67;;;1.10;;
58518;SDS011;44310;48.106;12.008;2022-08-06T03:27:57;3.10;;;1.30;;
58518;SDS011;44310;48.106;12.008;2022-08-06T03:30:28;1.00;;;1.00;;
58518;SDS011;44310;48.106;12.008;2022-08-06T03:33:00;1.10;;;1.00;;
58518;SDS011;44310;48.106;12.008;2022-08-06T03:35:51;0.95;;;0.95;;
58518;SDS011;44310;48.106;12.008;2022-08-06T03:38:21;1.95;;;1.05;;
58518;SDS011;44310;48.106;12.008;2022-08-06T03:40:55;1.23;;;1.13;;
58518;SDS011;44310;48.106;12.008;2022-08-06T03:43:26;3.03;;;1.10;;
58518;SDS011;44310;48.106;12.008;2022-08-06T03:46:20;1.00;;;1.00;;
58518;SDS011;44310;48.106;12.008;2022-08-06T03:48:53;4.03;;;1.13;;
58518;SDS011;44310;48.106;12.008;2022-08-06T03:51:24;1.80;;;1.20;;
58518;SDS011;44310;48.106;12.008;2022-08-06T03:54:13;1.23;;;1.13;;
58518;SDS011;44310;48.106;12.008;2022-08-06T03:56:54;1.30;;;1.27;;
58518;SDS011;44310;48.106;12.008;2022-08-06T03:59:26;1.90;;;1.60;;
58518;SDS011;44310;48.106;12.008;2022-08-06T04:02:04;1.27;;;1.17;;
58518;SDS011;44310;48.106;12.008;2022-08-06T04:04:50;1.17;;;1.17;;
58518;SDS011;44310;48.106;12.008;2022-08-06T04:07:18;2.50;;;0.90;;
58518;SDS011;44310;48.106;12.008;2022-08-06T04:09:49;0.90;;;0.90;;
58518;SDS011;44310;48.106;12.008;2022-08-06T04:12:27;2.20;;;1.10;;
58518;SDS011;44310;48.106;12.008;2022-08-06T04:15:16;1.95;;;1.30;;
58518;SDS011;44310;48.106;12.008;2022-08-06T04:17:44;2.58;;;1.10;;
58518;SDS011;44310;48.106;12.008;2022-08-06T04:20:14;3.92;;;1.67;;
58518;SDS011;44310;48.106;12.008;2022-08-06T04:23:05;4.32;;;1.45;;
58518;SDS011;44310;48.106;12.008;2022-08-06T04:25:46;3.90;;;1.50;;
58518;SDS011;44310;48.106;12.008;2022-08-06T04:28:23;2.53;;;1.42;;
58518;SDS011;44310;48.106;12.008;2022-08-06T04:30:54;1.80;;;1.20;;
58518;SDS011;44310;48.106;12.008;2022-08-06T04:33:26;6.03;;;1.73;;
58518;SDS011;44310;48.106;12.008;2022-08-06T04:36:01;4.53;;;1.67;;
58518;SDS011;44310;48.106;12.008;2022-08-06T04:38:43;3.90;;;1.50;;
58518;SDS011;44310;48.106;12.008;2022-08-06T04:41:17;5.30;;;1.40;;
58518;SDS011;44310;48.106;12.008;2022-08-06T04:43:46;3.30;;;1.20;;
58518;SDS011;44310;48.106;12.008;2022-08-06T04:46:19;2.50;;;1.65;;
58518;SDS011;44310;48.106;12.008;2022-08-06T04:48:47;5.22;;;1.50;;
58518;SDS011;44310;48.106;12.008;2022-08-06T04:51:21;3.90;;;1.65;;
58518;SDS011;44310;48.106;12.008;2022-08-06T04:54:09;4.60;;;1.38;;
58518;SDS011;44310;48.106;12.008;2022-08-06T04:56:38;2.42;;;1.60;;
58518;SDS011;44310;48.106;12.008;2022-08-06T04:59:16;2.20;;;1.08;;
58518;SDS011;44310;48.106;12.008;2022-08-06T05:01:45;2.20;;;1.23;;
58518;SDS011;44310;48.106;12.008;2022-08-06T05:04:27;1.50;;;1.40;;
58518;SDS011;44310;48.106;12.008;2022-08-06T05:09:39;2.83;;;1.70;;
58518;SDS011;44310;48.106;12.008;2022-08-06T05:12:19;1.50;;;1.40;;
58518;SDS011;44310;48.106;12.008;2022-08-06T05:14:51;1.33;;;1.23;;
58518;SDS011;44310;48.106;12.008;2022-08-06T05:17:29;1.60;;;1.50;;
58518;SDS011;44310;48.106;12.008;2022-08-06T05:20:04;7.40;;;1.60;;
58518;SDS011;44310;48.106;12.008;2022-08-06T05:23:06;2.20;;;1.52;;
58518;SDS011;44310;48.106;12.008;2022-08-06T05:25:57;4.10;;;1.60;;
58518;SDS011;44310;48.106;12.008;2022-08-06T05:28:25;2.42;;;1.50;;
58518;SDS011;44310;48.106;12.008;2022-08-06T05:30:54;2.70;;;1.57;;
58518;SDS011;44310;48.106;12.008;2022-08-06T05:33:27;3.08;;;1.65;;
58518;SDS011;44310;48.106;12.008;2022-08-06T05:35:59;1.65;;;1.55;;
58518;SDS011;44310;48.106;12.008;2022-08-06T05:38:32;1.58;;;1.48;;
58518;SDS011;44310;48.106;12.008;2022-08-06T05:41:06;1.70;;;1.60;;
58518;SDS011;44310;48.106;12.008;2022-08-06T05:43:36;1.93;;;1.83;;
58518;SDS011;44310;48.106;12.008;2022-08-06T05:46:24;3.03;;;1.88;;
58518;SDS011;44310;48.106;12.008;2022-08-06T05:51:55;3.15;;;2.22;;
58518;SDS011;44310;48.106;12.008;2022-08-06T05:54:46;2.03;;;1.80;;
58518;SDS011;44310;48.106;12.008;2022-08-06T06:00:11;2.78;;;2.10;;
58518;SDS011;44310;48.106;12.008;2022-08-06T06:03:03;1.80;;;1.42;;
58518;SDS011;44310;48.106;12.008;2022-08-06T06:05:33;1.80;;;1.50;;
58518;SDS011;44310;48.106;12.008;2022-08-06T06:08:22;2.83;;;1.95;;
58518;SDS011;44310;48.106;12.008;2022-08-06T06:11:04;3.35;;;1.88;;
58518;SDS011;44310;48.106;12.008;2022-08-06T06:13:36;2.10;;;1.35;;
58518;SDS011;44310;48.106;12.008;2022-08-06T06:16:26;4.28;;;1.52;;
58518;SDS011;44310;48.106;12.008;2022-08-06T06:21:48;1.70;;;1.60;;
58518;SDS011;44310;48.106;12.008;2022-08-06T06:24:32;5.70;;;1.83;;
58518;SDS011;44310;48.106;12.008;2022-08-06T06:30:16;1.67;;;1.58;;
58518;SDS011;44310;48.106;12.008;2022-08-06T06:33:18;3.10;;;1.40;;
58518;SDS011;44310;48.106;12.008;2022-08-06T06:36:25;2.20;;;1.50;;
58518;SDS011;44310;48.106;12.008;2022-08-06T06:38:59;4.38;;;1.60;;
58518;SDS011;44310;48.106;12.008;2022-08-06T06:41:53;2.28;;;1.98;;
58518;SDS011;44310;48.106;12.008;2022-08-06T06:47:43;2.75;;;1.95;;
58518;SDS011;44310;48.106;12.008;2022-08-06T06:50:35;2.17;;;1.63;;
58518;SDS011;44310;48.106;12.008;2022-08-06T06:53:09;7.57;;;1.85;;
58518;SDS011;44310;48.106;12.008;2022-08-06T06:55:47;4.32;;;2.50;;
58518;SDS011;44310;48.106;12.008;2022-08-06T06:58:31;5.47;;;1.87;;
58518;SDS011;44310;48.106;12.008;2022-08-06T07:01:04;3.70;;;1.70;;
58518;SDS011;44310;48.106;12.008;2022-08-06T07:03:54;12.13;;;2.58;;
58518;SDS011;44310;48.106;12.008;2022-08-06T07:06:23;3.83;;;1.80;;
58518;SDS011;44310;48.106;12.008;2022-08-06T07:09:08;2.80;;;1.50;;
58518;SDS011;44310;48.106;12.008;2022-08-06T07:12:00;1.53;;;1.43;;
58518;SDS011;44310;48.106;12.008;2022-08-06T07:14:30;1.73;;;1.63;;
58518;SDS011;44310;48.106;12.008;2022-08-06T07:17:02;1.90;;;1.80;;
58518;SDS011;44310;48.106;12.008;2022-08-06T07:19:51;1.70;;;1.60;;
58518;SDS011;44310;48.106;12.008;2022-08-06T07:22:23;2.20;;;1.92;;
58518;SDS011;44310;48.106;12.008;2022-08-06T07:24:53;1.67;;;1.53;;
58518;SDS011;44310;48.106;12.008;2022-08-06T07:27:42;1.60;;;1.50;;
58518;SDS011;44310;48.106;12.008;2022-08-06T07:30:20;1.60;;;1.50;;
58518;SDS011;44310;48.106;12.008;2022-08-06T07:32:51;1.73;;;1.63;;
58518;SDS011;44310;48.106;12.008;2022-08-06T07:35:19;1.85;;;1.75;;
58518;SDS011;44310;48.106;12.008;2022-08-06T07:37:56;1.38;;;1.27;;
58518;SDS011;44310;48.106;12.008;2022-08-06T07:40:32;1.70;;;1.60;;
58518;SDS011;44310;48.106;12.008;2022-08-06T07:43:13;1.50;;;1.40;;
58518;SDS011;44310;48.106;12.008;2022-08-06T07:45:51;1.50;;;1.40;;
58518;SDS011;44310;48.106;12.008;2022-08-06T07:48:30;1.60;;;1.50;;
58518;SDS011;44310;48.106;12.008;2022-08-06T07:51:02;1.40;;;1.30;;
58518;SDS011;44310;48.106;12.008;2022-08-06T07:53:34;1.40;;;1.38;;
58518;SDS011;44310;48.106;12.008;2022-08-06T07:56:24;1.20;;;1.10;;
58518;SDS011;44310;48.106;12.008;2022-08-06T07:58:52;1.23;;;1.23;;
58518;SDS011;44310;48.106;12.008;2022-08-06T08:01:23;1.53;;;1.43;;
58518;SDS011;44310;48.106;12.008;2022-08-06T08:04:05;1.17;;;1.10;;
58518;SDS011;44310;48.106;12.008;2022-08-06T08:07:11;1.00;;;1.00;;
58518;SDS011;44310;48.106;12.008;2022-08-06T08:09:39;1.10;;;1.10;;
58518;SDS011;44310;48.106;12.008;2022-08-06T08:12:28;0.95;;;0.95;;
58518;SDS011;44310;48.106;12.008;2022-08-06T08:15:02;1.10;;;1.10;;
58518;SDS011;44310;48.106;12.008;2022-08-06T08:17:44;0.80;;;0.80;;
58518;SDS011;44310;48.106;12.008;2022-08-06T08:20:23;0.82;;;0.82;;
58518;SDS011;44310;48.106;12.008;2022-08-06T08:23:01;1.10;;;1.10;;
58518;SDS011;44310;48.106;12.008;2022-08-06T08:25:34;0.90;;;0.90;;
58518;SDS011;44310;48.106;12.008;2022-08-06T08:28:09;1.02;;;1.02;;
58518;SDS011;44310;48.106;12.008;2022-08-06T08:30:43;0.80;;;0.80;;
58518;SDS011;44310;48.106;12.008;2022-08-06T08:33:16;0.60;;;0.60;;
58518;SDS011;44310;48.106;12.008;2022-08-06T08:35:45;0.60;;;0.60;;
58518;SDS011;44310;48.106;12.008;2022-08-06T08:38:32;0.60;;;0.60;;
58518;SDS011;44310;48.106;12.008;2022-08-06T08:41:02;0.70;;;0.70;;
58518;SDS011;44310;48.106;12.008;2022-08-06T08:43:37;0.87;;;0.73;;
58518;SDS011;44310;48.106;12.008;2022-08-06T08:46:33;0.90;;;0.70;;
58518;SDS011;44310;48.106;12.008;2022-08-06T08:49:17;0.80;;;0.70;;
58518;SDS011;44310;48.106;12.008;2022-08-06T08:51:48;3.15;;;1.05;;
58518;SDS011;44310;48.106;12.008;2022-08-06T08:54:20;0.80;;;0.80;;
58518;SDS011;44310;48.106;12.008;2022-08-06T08:56:49;0.75;;;0.75;;
58518;SDS011;44310;48.106;12.008;2022-08-06T08:59:37;0.77;;;0.77;;
58518;SDS011;44310;48.106;12.008;2022-08-06T09:02:27;0.90;;;0.90;;
58518;SDS011;44310;48.106;12.008;2022-08-06T09:04:56;4.60;;;1.13;;
58518;SDS011;44310;48.106;12.008;2022-08-06T09:07:25;1.30;;;1.00;;
58518;SDS011;44310;48.106;12.008;2022-08-06T09:10:03;1.80;;;0.90;;
58518;SDS011;44310;48.106;12.008;2022-08-06T09:12:41;0.90;;;0.90;;
58518;SDS011;44310;48.106;12.008;2022-08-06T09:15:14;0.90;;;0.90;;
58518;SDS011;44310;48.106;12.008;2022-08-06T09:17:44;1.23;;;1.13;;
58518;SDS011;44310;48.106;12.008;2022-08-06T09:20:33;0.73;;;0.73;;
58518;SDS011;44310;48.106;12.008;2022-08-06T09:23:02;2.70;;;1.40;;
58518;SDS011;44310;48.106;12.008;2022-08-06T09:26:07;1.90;;;1.42;;
58518;SDS011;44310;48.106;12.008;2022-08-06T09:28:35;4.63;;;2.45;;
58518;SDS011;44310;48.106;12.008;2022-08-06T09:31:12;3.53;;;1.38;;
58518;SDS011;44310;48.106;12.008;2022-08-06T09:34:00;9.38;;;4.10;;
58518;SDS011;44310;48.106;12.008;2022-08-06T09:36:49;2.00;;;1.52;;
58518;SDS011;44310;48.106;12.008;2022-08-06T09:39:35;2.75;;;1.85;;
58518;SDS011;44310;48.106;12.008;2022-08-06T09:42:40;1.52;;;1.42;;
58518;SDS011;44310;48.106;12.008;2022-08-06T09:45:18;1.80;;;1.70;;
58518;SDS011;44310;48.106;12.008;2022-08-06T09:48:07;13.35;;;4.15;;
58518;SDS011;44310;48.106;12.008;2022-08-06T09:50:47;1.63;;;1.52;;
58518;SDS011;44310;48.106;12.008;2022-08-06T09:53:17;1.98;;;1.88;;
58518;SDS011;44310;48.106;12.008;2022-08-06T09:55:52;2.05;;;1.85;;
58518;SDS011;44310;48.106;12.008;2022-08-06T09:58:28;2.20;;;1.88;;
58518;SDS011;44310;48.106;12.008;2022-08-06T10:01:12;2.10;;;1.90;;
58518;SDS011;44310;48.106;12.008;2022-08-06T10:03:49;2.05;;;1.95;;
58518;SDS011;44310;48.106;12.008;2022-08-06T10:06:32;4.72;;;2.22;;
58518;SDS011;44310;48.106;12.008;2022-08-06T10:09:07;3.58;;;2.42;;
58518;SDS011;44310;48.106;12.008;2022-08-06T10:11:46;2.88;;;2.30;;
58518;SDS011;44310;48.106;12.008;2022-08-06T10:14:26;2.93;;;2.53;;
58518;SDS011;44310;48.106;12.008;2022-08-06T10:17:09;14.95;;;4.57;;
58518;SDS011;44310;48.106;12.008;2022-08-06T10:19:41;4.22;;;3.17;;
58518;SDS011;44310;48.106;12.008;2022-08-06T10:22:18;5.70;;;2.10;;
58518;SDS011;44310;48.106;12.008;2022-08-06T10:24:48;5.70;;;2.38;;
58518;SDS011;44310;48.106;12.008;2022-08-06T10:27:21;1.60;;;1.50;;
58518;SDS011;44310;48.106;12.008;2022-08-06T10:30:05;1.60;;;1.50;;
58518;SDS011;44310;48.106;12.008;2022-08-06T10:35:09;1.73;;;1.52;;
58518;SDS011;44310;48.106;12.008;2022-08-06T10:37:41;1.63;;;1.52;;
58518;SDS011;44310;48.106;12.008;2022-08-06T10:40:15;2.53;;;1.60;;
58518;SDS011;44310;48.106;12.008;2022-08-06T10:43:01;1.60;;;1.50;;
58518;SDS011;44310;48.106;12.008;2022-08-06T10:45:33;1.60;;;1.50;;
58518;SDS011;44310;48.106;12.008;2022-08-06T10:48:15;1.27;;;1.20;;
58518;SDS011;44310;48.106;12.008;2022-08-06T10:51:04;1.60;;;1.50;;
58518;SDS011;44310;48.106;12.008;2022-08-06T10:53:34;1.85;;;1.63;;
58518;SDS011;44310;48.106;12.008;2022-08-06T10:56:24;1.15;;;1.15;;
58518;SDS011;44310;48.106;12.008;2022-08-06T10:58:58;1.30;;;1.30;;
58518;SDS011;44310;48.106;12.008;2022-08-06T11:04:14;1.50;;;1.40;;
58518;SDS011;44310;48.106;12.008;2022-08-06T11:10:18;1.58;;;1.48;;
58518;SDS011;44310;48.106;12.008;2022-08-06T11:13:02;1.52;;;1.42;;
58518;SDS011;44310;48.106;12.008;2022-08-06T11:15:37;1.85;;;1.75;;
58518;SDS011;44310;48.106;12.008;2022-08-06T11:18:08;1.85;;;1.75;;
58518;SDS011;44310;48.106;12.008;2022-08-06T11:20:39;1.53;;;1.43;;
58518;SDS011;44310;48.106;12.008;2022-08-06T11:26:00;1.70;;;1.60;;
58518;SDS011;44310;48.106;12.008;2022-08-06T11:31:01;1.80;;;1.70;;
58518;SDS011;44310;48.106;12.008;2022-08-06T11:36:05;1.70;;;1.60;;
58518;SDS011;44310;48.106;12.008;2022-08-06T11:44:08;1.85;;;1.75;;
58518;SDS011;44310;48.106;12.008;2022-08-06T11:46:41;1.80;;;1.70;;
58518;SDS011;44310;48.106;12.008;2022-08-06T11:49:19;1.95;;;1.85;;
58518;SDS011;44310;48.106;12.008;2022-08-06T11:54:42;2.10;;;2.00;;
58518;SDS011;44310;48.106;12.008;2022-08-06T11:57:27;1.80;;;1.70;;
58518;SDS011;44310;48.106;12.008;2022-08-06T12:00:20;1.70;;;1.60;;
58518;SDS011;44310;48.106;12.008;2022-08-06T12:02:50;2.00;;;1.90;;
58518;SDS011;44310;48.106;12.008;2022-08-06T12:08:11;1.70;;;1.60;;
58518;SDS011;44310;48.106;12.008;2022-08-06T12:14:02;1.95;;;1.85;;
58518;SDS011;44310;48.106;12.008;2022-08-06T12:16:50;2.17;;;2.08;;
58518;SDS011;44310;48.106;12.008;2022-08-06T12:19:24;1.90;;;1.80;;
58518;SDS011;44310;48.106;12.008;2022-08-06T12:21:52;1.83;;;1.73;;
58518;SDS011;44310;48.106;12.008;2022-08-06T12:24:23;2.10;;;1.90;;
58518;SDS011;44310;48.106;12.008;2022-08-06T12:27:12;2.00;;;1.90;;
58518;SDS011;44310;48.106;12.008;2022-08-06T12:29:41;1.90;;;1.80;;
58518;SDS011;44310;48.106;12.008;2022-08-06T12:32:34;2.03;;;1.92;;
58518;SDS011;44310;48.106;12.008;2022-08-06T12:35:02;1.90;;;1.80;;
58518;SDS011;44310;48.106;12.008;2022-08-06T12:37:35;1.70;;;1.60;;
58518;SDS011;44310;48.106;12.008;2022-08-06T12:40:17;1.92;;;1.73;;
58518;SDS011;44310;48.106;12.008;2022-08-06T12:45:41;2.00;;;1.90;;
58518;SDS011;44310;48.106;12.008;2022-08-06T12:48:30;1.85;;;1.75;;
58518;SDS011;44310;48.106;12.008;2022-08-06T12:53:49;2.20;;;2.10;;
58518;SDS011;44310;48.106;12.008;2022-08-06T12:56:24;1.95;;;1.85;;
58518;SDS011;44310;48.106;12.008;2022-08-06T12:58:59;1.83;;;1.73;;
58518;SDS011;44310;48.106;12.008;2022-08-06T13:01:29;1.80;;;1.70;;
58518;SDS011;44310;48.106;12.008;2022-08-06T13:04:18;2.00;;;1.90;;
58518;SDS011;44310;48.106;12.008;2022-08-06T13:06:56;2.15;;;1.98;;
58518;SDS011;44310;48.106;12.008;2022-08-06T13:09:27;1.80;;;1.70;;
58518;SDS011;44310;48.106;12.008;2022-08-06T13:12:11;2.50;;;1.80;;
58518;SDS011;44310;48.106;12.008;2022-08-06T13:14:56;1.98;;;1.85;;
58518;SDS011;44310;48.106;12.008;2022-08-06T13:17:59;1.80;;;1.70;;
58518;SDS011;44310;48.106;12.008;2022-08-06T13:20:51;2.22;;;2.13;;
58518;SDS011;44310;48.106;12.008;2022-08-06T13:23:33;2.30;;;2.10;;
58518;SDS011;44310;48.106;12.008;2022-08-06T13:26:10;1.98;;;1.88;;
58518;SDS011;44310;48.106;12.008;2022-08-06T13:31:59;2.17;;;1.98;;
58518;SDS011;44310;48.106;12.008;2022-08-06T13:34:28;1.60;;;1.50;;
58518;SDS011;44310;48.106;12.008;2022-08-06T13:36:56;2.20;;;2.10;;
58518;SDS011;44310;48.106;12.008;2022-08-06T13:39:30;1.88;;;1.77;;
58518;SDS011;44310;48.106;12.008;2022-08-06T13:42:08;2.30;;;2.20;;
58518;SDS011;44310;48.106;12.008;2022-08-06T13:44:41;2.00;;;1.90;;
58518;SDS011;44310;48.106;12.008;2022-08-06T13:47:11;2.30;;;2.20;;
58518;SDS011;44310;48.106;12.008;2022-08-06T13:50:03;2.10;;;2.00;;
58518;SDS011;44310;48.106;12.008;2022-08-06T13:52:34;1.85;;;1.75;;
58518;SDS011;44310;48.106;12.008;2022-08-06T13:55:01;2.15;;;2.05;;
58518;SDS011;44310;48.106;12.008;2022-08-06T13:57:34;2.30;;;2.20;;
58518;SDS011;44310;48.106;12.008;2022-08-06T14:00:10;2.03;;;1.92;;
58518;SDS011;44310;48.106;12.008;2022-08-06T14:02:42;2.10;;;2.00;;
58518;SDS011;44310;48.106;12.008;2022-08-06T14:05:10;1.92;;;1.83;;
58518;SDS011;44310;48.106;12.008;2022-08-06T14:07:48;2.30;;;2.10;;
58518;SDS011;44310;48.106;12.008;2022-08-06T14:10:16;2.35;;;2.25;;
58518;SDS011;44310;48.106;12.008;2022-08-06T14:12:55;2.05;;;1.95;;
58518;SDS011;44310;48.106;12.008;2022-08-06T14:15:42;2.33;;;2.20;;
58518;SDS011;44310;48.106;12.008;2022-08-06T14:18:11;2.33;;;2.22;;
58518;SDS011;44310;48.106;12.008;2022-08-06T14:20:40;2.10;;;2.00;;
58518;SDS011;44310;48.106;12.008;2022-08-06T14:23:08;2.50;;;2.40;;
58518;SDS011;44310;48.106;12.008;2022-08-06T14:25:38;2.13;;;2.03;;
58518;SDS011;44310;48.106;12.008;2022-08-06T14:28:26;2.10;;;2.00;;
58518;SDS011;44310;48.106;12.008;2022-08-06T14:30:53;2.17;;;2.07;;
58518;SDS011;44310;48.106;12.008;2022-08-06T14:33:21;2.22;;;2.13;;
58518;SDS011;44310;48.106;12.008;2022-08-06T14:36:02;2.35;;;2.25;;
58518;SDS011;44310;48.106;12.008;2022-08-06T14:38:30;1.95;;;1.85;;
58518;SDS011;44310;48.106;12.008;2022-08-06T14:41:00;2.40;;;2.30;;
58518;SDS011;44310;48.106;12.008;2022-08-06T14:44:07;1.98;;;1.88;;
58518;SDS011;44310;48.106;12.008;2022-08-06T14:46:55;2.13;;;2.03;;
58518;SDS011;44310;48.106;12.008;2022-08-06T14:49:25;2.20;;;2.10;;
58518;SDS011;44310;48.106;12.008;2022-08-06T14:52:12;2.28;;;2.17;;
58518;SDS011;44310;48.106;12.008;2022-08-06T14:54:49;2.35;;;2.15;;
58518;SDS011;44310;48.106;12.008;2022-08-06T14:57:32;2.40;;;2.30;;
58518;SDS011;44310;48.106;12.008;2022-08-06T15:00:21;2.30;;;2.20;;
58518;SDS011;44310;48.106;12.008;2022-08-06T15:03:04;2.13;;;2.03;;
58518;SDS011;44310;48.106;12.008;2022-08-06T15:05:33;1.90;;;1.80;;
58518;SDS011;44310;48.106;12.008;2022-08-06T15:08:21;2.00;;;1.90;;
58518;SDS011;44310;48.106;12.008;2022-08-06T15:10:48;2.10;;;2.00;;
58518;SDS011;44310;48.106;12.008;2022-08-06T15:13:17;2.60;;;2.40;;
58518;SDS011;44310;48.106;12.008;2022-08-06T15:15:46;2.35;;;2.15;;
58518;SDS011;44310;48.106;12.008;2022-08-06T15:18:16;2.57;;;2.37;;
58518;SDS011;44310;48.106;12.008;2022-08-06T15:21:03;2.38;;;2.28;;
58518;SDS011;44310;48.106;12.008;2022-08-06T15:23:41;2.25;;;2.15;;
58518;SDS011;44310;48.106;12.008;2022-08-06T15:26:20;2.35;;;2.25;;
58518;SDS011;44310;48.106;12.008;2022-08-06T15:29:08;2.03;;;1.92;;
58518;SDS011;44310;48.106;12.008;2022-08-06T15:31:42;2.50;;;2.40;;
58518;SDS011;44310;48.106;12.008;2022-08-06T15:34:13;2.30;;;2.17;;
58518;SDS011;44310;48.106;12.008;2022-08-06T15:36:51;2.58;;;2.38;;
58518;SDS011;44310;48.106;12.008;2022-08-06T15:39:33;2.10;;;2.00;;
58518;SDS011;44310;48.106;12.008;2022-08-06T15:42:21;2.45;;;2.28;;
58518;SDS011;44310;48.106;12.008;2022-08-06T15:44:53;2.13;;;2.03;;
58518;SDS011;44310;48.106;12.008;2022-08-06T15:47:21;2.08;;;1.98;;
58518;SDS011;44310;48.106;12.008;2022-08-06T15:49:58;2.10;;;2.00;;
58518;SDS011;44310;48.106;12.008;2022-08-06T15:52:31;2.10;;;2.00;;
58518;SDS011;44310;48.106;12.008;2022-08-06T15:55:07;2.38;;;2.17;;
58518;SDS011;44310;48.106;12.008;2022-08-06T15:57:43;2.30;;;2.10;;
58518;SDS011;44310;48.106;12.008;2022-08-06T16:00:32;2.28;;;2.17;;
58518;SDS011;44310;48.106;12.008;2022-08-06T16:03:03;2.17;;;2.08;;
58518;SDS011;44310;48.106;12.008;2022-08-06T16:05:34;2.05;;;1.95;;
58518;SDS011;44310;48.106;12.008;2022-08-06T16:08:23;2.80;;;2.60;;
58518;SDS011;44310;48.106;12.008;2022-08-06T16:11:10;2.30;;;2.20;;
58518;SDS011;44310;48.106;12.008;2022-08-06T16:13:39;2.70;;;2.50;;
58518;SDS011;44310;48.106;12.008;2022-08-06T16:16:20;2.53;;;2.42;;
58518;SDS011;44310;48.106;12.008;2022-08-06T16:18:58;2.90;;;2.60;;
58518;SDS011;44310;48.106;12.008;2022-08-06T16:21:28;2.53;;;2.42;;
58518;SDS011;44310;48.106;12.008;2022-08-06T16:24:00;2.50;;;2.40;;
58518;SDS011;44310;48.106;12.008;2022-08-06T16:26:31;2.63;;;2.25;;
58518;SDS011;44310;48.106;12.008;2022-08-06T16:29:16;2.63;;;2.42;;
58518;SDS011;44310;48.106;12.008;2022-08-06T16:31:46;2.60;;;2.40;;
58518;SDS011;44310;48.106;12.008;2022-08-06T16:34:19;2.65;;;2.47;;
58518;SDS011;44310;48.106;12.008;2022-08-06T16:36:57;2.70;;;2.50;;
58518;SDS011;44310;48.106;12.008;2022-08-06T16:39:26;2.53;;;2.42;;
58518;SDS011;44310;48.106;12.008;2022-08-06T16:42:06;2.60;;;2.40;;
58518;SDS011;44310;48.106;12.008;2022-08-06T16:44:36;2.60;;;2.50;;
58518;SDS011;44310;48.106;12.008;2022-08-06T16:47:24;2.40;;;2.30;;